Main page
METAR-TAF:

METAR-TAF

Airports :

Fritzlar Air Base

Fritzlar, Germany

latitude: 51-07N, longitude: 009-17E, elevation: 172 m

Current weather observation

The report was made 1 hour and 7 minutes ago, at 23:20 UTC
Wind 2 kt from the Northwest
Temperature -1°C
Humidity 93%
Pressure 1023 hPa
Visibility 10 km or more

METAR: ETHF 182320Z AUTO 31002KT 9999 // ////// M01/M02 Q1023 ///

Time: 01:27 (00:27 UTC)

Forecast

The report was made 4 hours and 50 minutes ago, at 19:37 UTC
Forecast valid from 18 at 15 UTC to 18 at 24 UTC
Wind 10 kt from the West
Visibility 10 km or more
Few clouds at a height of 2000 ft
Scattered clouds at a height of 4000 ft
Temporary
from 18 at 15 UTC to 18 at 18 UTC
Wind 15 kt from the West/Northwest with gusts up to 25 kt
Visibility: 2000 m
Few clouds at a height of 1000 ft
Broken clouds at a height of 1500 ft, Cumulonimbus.
rain showers

TAF: ETHF 181937Z 1815/1824 28010KT 9999 NSW FEW020 SCT040 TEMPO 1815/1818 29015G25KT 4000 SHRA FEW010 BKN015CB CANCEL 2000

Weather observations and forecasts of more than 4000 airports (METAR and TAF reports).

The available stations are represented by yellow and red dots on the map.

Hover mouse over dot to see the name of the station.

Then click to see weather observations and forecasts.

To change the map : click on the green buttons with a black cross to zoom in, on the green button with a dash to zoom out, or on the green arrows for adjacent maps.


METAR-TAF: